Time;durP1;ratioP1;P1;durP2;ratioP2;P2;SDS_P1;SDS_P2;PMS_P1;PMS_P2;Temp;Humidity;BMP_temperature;BMP_pressure;BME280_temperature;BME280_humidity;BME280_pressure;Samples;Min_cycle;Max_cycle;Signal;HPM_P1;HPM_P2
2021/05/17 00:00:52;;;;;;;11.80;4.15;;;15.80;99.90;;;;;;5021108;28;20112;-75
2021/05/17 00:03:18;;;;;;;4.45;2.42;;;15.70;99.90;;;;;;5038883;28;20142;-75
2021/05/17 00:05:45;;;;;;;3.50;2.40;;;15.80;99.90;;;;;;5038768;28;20026;-75
2021/05/17 00:08:11;;;;;;;8.38;2.78;;;15.80;99.90;;;;;;5037757;28;20030;-76
2021/05/17 00:10:38;;;;;;;8.13;2.63;;;15.80;99.90;;;;;;5039029;28;20430;-75
2021/05/17 00:13:04;;;;;;;7.60;3.13;;;15.80;99.90;;;;;;5038564;28;20057;-76
2021/05/17 00:15:31;;;;;;;7.97;2.88;;;15.70;99.90;;;;;;5022036;28;20049;-75
2021/05/17 00:17:57;;;;;;;4.70;2.90;;;15.70;99.90;;;;;;5031628;28;20045;-75
2021/05/17 00:20:24;;;;;;;11.02;3.00;;;15.60;99.90;;;;;;5019424;28;20002;-76
2021/05/17 00:22:50;;;;;;;4.03;3.08;;;15.60;99.90;;;;;;5039828;28;20460;-76
2021/05/17 00:25:22;;;;;;;4.35;2.03;;;15.50;99.90;;;;;;5038651;28;20083;-75
2021/05/17 00:27:48;;;;;;;;;;;15.60;99.90;;;;;;5040790;28;20032;-75
2021/05/17 00:30:14;;;;;;;5.05;2.03;;;15.60;99.90;;;;;;5038550;28;19964;-74
2021/05/17 00:32:41;;;;;;;3.78;2.50;;;15.70;99.90;;;;;;5036120;28;20037;-75
2021/05/17 00:35:07;;;;;;;5.95;2.47;;;15.60;99.90;;;;;;5034189;28;20065;-76
2021/05/17 00:37:33;;;;;;;8.82;2.13;;;15.80;99.90;;;;;;5037888;28;20030;-74
2021/05/17 00:39:59;;;;;;;9.23;2.40;;;15.80;99.90;;;;;;5033218;28;20026;-75
2021/05/17 00:42:25;;;;;;;13.45;2.78;;;15.80;99.90;;;;;;5040740;28;20107;-74
2021/05/17 00:44:53;;;;;;;7.05;2.00;;;15.80;99.90;;;;;;5016845;28;20095;-75
2021/05/17 00:47:19;;;;;;;8.07;3.33;;;15.90;99.90;;;;;;5015808;28;20403;-75
2021/05/17 00:49:46;;;;;;;5.38;2.72;;;15.90;99.90;;;;;;5035086;28;20034;-74
2021/05/17 00:52:14;;;;;;;7.82;3.13;;;15.90;99.90;;;;;;5031800;28;20067;-75
2021/05/17 00:54:41;;;;;;;5.95;3.30;;;15.90;99.90;;;;;;5018084;28;20048;-75
2021/05/17 00:57:08;;;;;;;9.60;3.08;;;16.00;99.90;;;;;;5034636;28;20666;-75
2021/05/17 00:59:34;;;;;;;11.27;2.90;;;16.00;99.90;;;;;;5032919;28;20029;-75
2021/05/17 01:02:00;;;;;;;8.73;2.38;;;16.10;99.90;;;;;;5036157;28;20087;-74
2021/05/17 01:04:26;;;;;;;9.15;3.30;;;16.00;99.90;;;;;;5035630;28;20025;-75
2021/05/17 01:06:53;;;;;;;11.88;2.85;;;16.00;99.90;;;;;;5016883;28;20464;-75
2021/05/17 01:09:20;;;;;;;10.52;3.47;;;16.00;99.90;;;;;;5032730;28;22593;-75
2021/05/17 01:11:46;;;;;;;10.88;2.85;;;16.00;99.90;;;;;;5018384;28;20541;-75
2021/05/17 01:14:13;;;;;;;3.90;2.22;;;16.00;99.90;;;;;;5036794;28;20454;-75
2021/05/17 01:16:39;;;;;;;15.32;3.25;;;16.00;99.90;;;;;;5036334;28;20083;-75
2021/05/17 01:19:09;;;;;;;16.13;3.53;;;16.00;99.90;;;;;;5036181;28;20081;-75
2021/05/17 01:21:39;;;;;;;10.65;3.47;;;15.90;99.90;;;;;;5036305;28;20024;-76
2021/05/17 01:24:06;;;;;;;14.93;3.92;;;15.90;99.90;;;;;;5035606;28;20037;-76
2021/05/17 01:26:35;;;;;;;5.97;3.35;;;15.80;99.90;;;;;;5019170;28;20021;-74
2021/05/17 01:29:05;;;;;;;8.15;3.08;;;15.80;99.90;;;;;;5036902;28;20032;-74
2021/05/17 01:31:31;;;;;;;9.93;3.40;;;15.70;99.90;;;;;;5035832;28;20136;-75
2021/05/17 01:33:57;;;;;;;13.73;3.55;;;15.70;99.90;;;;;;5034838;28;20051;-75
2021/05/17 01:36:24;;;;;;;11.43;2.92;;;15.80;99.90;;;;;;5029333;28;20045;-75
2021/05/17 01:38:53;;;;;;;13.38;4.90;;;15.80;99.90;;;;;;5034763;28;20031;-76
2021/05/17 01:41:21;;;;;;;11.27;3.67;;;15.80;99.90;;;;;;5035750;28;20025;-75
2021/05/17 01:43:51;;;;;;;12.30;3.03;;;15.80;99.90;;;;;;5035319;28;20033;-75
2021/05/17 01:46:19;;;;;;;8.13;2.83;;;15.80;99.90;;;;;;5017563;28;20021;-75
2021/05/17 01:48:45;;;;;;;9.07;3.10;;;15.80;99.90;;;;;;5015811;28;20032;-75
2021/05/17 01:51:18;;;;;;;9.23;3.60;;;15.80;99.90;;;;;;5016418;28;20025;-75
2021/05/17 01:53:45;;;;;;;7.70;3.25;;;15.80;99.90;;;;;;5018621;28;20112;-74
2021/05/17 01:56:13;;;;;;;10.65;3.70;;;15.70;99.90;;;;;;5014707;28;20021;-75
2021/05/17 01:58:40;;;;;;;9.60;3.53;;;15.80;99.90;;;;;;5035871;28;20072;-75
2021/05/17 02:01:14;;;;;;;8.77;3.40;;;15.70;99.90;;;;;;5018060;28;20033;-75
2021/05/17 02:03:46;;;;;;;6.70;3.10;;;15.70;99.90;;;;;;5018696;28;20029;-75
2021/05/17 02:06:13;;;;;;;10.63;3.33;;;15.70;99.90;;;;;;5037206;28;20537;-75
2021/05/17 02:08:44;;;;;;;9.30;4.03;;;15.80;99.90;;;;;;5034853;28;20038;-75
2021/05/17 02:11:12;;;;;;;10.68;4.10;;;15.70;99.90;;;;;;5017548;28;20018;-76
2021/05/17 02:13:39;;;;;;;12.82;4.07;;;15.70;99.90;;;;;;5031524;28;20022;-75
2021/05/17 02:16:05;;;;;;;7.88;3.30;;;15.60;99.90;;;;;;5040770;28;20021;-76
2021/05/17 02:18:37;;;;;;;12.30;5.00;;;15.60;99.90;;;;;;5053199;28;20033;-76
2021/05/17 02:21:03;;;;;;;4.00;3.38;;;15.70;99.90;;;;;;5054135;28;20005;-77
2021/05/17 02:23:30;;;;;;;10.05;4.03;;;15.70;99.90;;;;;;5053391;28;20041;-76
2021/05/17 02:25:57;;;;;;;7.30;3.70;;;15.70;99.90;;;;;;5035820;28;20014;-77
2021/05/17 02:28:23;;;;;;;9.63;2.97;;;15.70;99.90;;;;;;5049251;28;20045;-76
2021/05/17 02:30:49;;;;;;;10.82;4.18;;;15.80;99.90;;;;;;5008261;28;20076;-78
2021/05/17 02:33:15;;;;;;;22.67;6.07;;;15.80;99.90;;;;;;5031219;28;20029;-77
2021/05/17 02:35:41;;;;;;;23.83;4.03;;;15.70;99.90;;;;;;5014393;28;20026;-77
2021/05/17 02:38:08;;;;;;;15.00;5.57;;;15.50;99.90;;;;;;5027374;28;20100;-75
2021/05/17 02:40:35;;;;;;;17.48;5.97;;;15.30;99.90;;;;;;5013500;28;20036;-74
2021/05/17 02:43:22;;;;;;;19.75;6.30;;;15.10;99.90;;;;;;5010759;28;20049;-74
2021/05/17 02:45:48;;;;;;;11.23;4.97;;;15.10;99.90;;;;;;5006974;28;20022;-73
2021/05/17 02:48:14;;;;;;;13.07;5.85;;;15.10;99.90;;;;;;5031702;28;20013;-74
2021/05/17 02:50:44;;;;;;;11.98;5.18;;;15.00;99.90;;;;;;5031677;28;20026;-74
2021/05/17 02:53:31;;;;;;;11.25;5.25;;;15.00;99.90;;;;;;5032738;28;20060;-75
2021/05/17 02:56:06;;;;;;;12.68;5.80;;;15.10;99.90;;;;;;5010559;28;20064;-74
2021/05/17 02:58:36;;;;;;;7.40;4.82;;;15.20;99.90;;;;;;5031704;28;20045;-74
2021/05/17 03:01:40;;;;;;;16.55;5.68;;;15.20;99.90;;;;;;5017475;28;20057;-74
2021/05/17 03:04:15;;;;;;;11.32;4.78;;;15.20;99.90;;;;;;5018609;28;20034;-74
2021/05/17 03:06:47;;;;;;;15.32;5.57;;;15.20;99.90;;;;;;5030236;28;20025;-77
2021/05/17 03:09:15;;;;;;;13.48;4.45;;;15.20;99.90;;;;;;5032236;28;20108;-75
2021/05/17 03:11:45;;;;;;;10.45;4.80;;;15.20;99.90;;;;;;5017096;28;20084;-75
2021/05/17 03:14:16;;;;;;;22.65;6.30;;;15.20;99.90;;;;;;5016952;28;20018;-75
2021/05/17 03:16:48;;;;;;;8.35;4.32;;;15.20;99.90;;;;;;5035311;28;20121;-74
2021/05/17 03:19:17;;;;;;;8.93;5.13;;;15.20;99.90;;;;;;5035481;28;20025;-75
2021/05/17 03:21:44;;;;;;;17.27;4.82;;;15.20;99.90;;;;;;5029975;28;20380;-76
2021/05/17 03:24:11;;;;;;;13.65;5.63;;;15.20;99.90;;;;;;5036069;28;20556;-74
2021/05/17 03:26:37;;;;;;;16.98;5.90;;;15.20;99.90;;;;;;5028654;28;20040;-75
2021/05/17 03:29:04;;;;;;;13.13;4.93;;;15.20;99.90;;;;;;5038196;28;20549;-75
2021/05/17 03:31:30;;;;;;;14.32;5.18;;;15.20;99.90;;;;;;5021438;28;20483;-75
2021/05/17 03:33:57;;;;;;;9.38;4.65;;;15.30;99.90;;;;;;5037832;28;20042;-75
2021/05/17 03:36:23;;;;;;;18.33;5.60;;;15.30;99.90;;;;;;5018222;28;20017;-75
2021/05/17 03:38:49;;;;;;;11.93;4.90;;;15.40;99.90;;;;;;5042495;28;20057;-75
2021/05/17 03:41:15;;;;;;;16.33;5.10;;;15.30;99.90;;;;;;5034155;28;20029;-75
2021/05/17 03:43:41;;;;;;;7.32;3.83;;;15.30;99.90;;;;;;5020735;28;20109;-75
2021/05/17 03:46:06;;;;;;;18.05;4.82;;;15.40;99.90;;;;;;5038057;28;20025;-75
2021/05/17 03:48:32;;;;;;;10.73;3.60;;;15.40;99.90;;;;;;5037680;28;20076;-75
2021/05/17 03:50:58;;;;;;;11.10;3.53;;;15.40;99.90;;;;;;5037700;28;20030;-75
2021/05/17 03:53:24;;;;;;;12.82;3.72;;;15.40;99.90;;;;;;5022283;28;20382;-76
2021/05/17 03:55:49;;;;;;;12.50;4.38;;;15.40;99.90;;;;;;5025233;28;20044;-76
2021/05/17 03:58:15;;;;;;;15.57;4.18;;;15.40;99.90;;;;;;5044455;28;20033;-77
2021/05/17 04:00:41;;;;;;;10.77;4.10;;;15.40;99.90;;;;;;5036601;28;20021;-75
2021/05/17 04:03:14;;;;;;;13.18;6.03;;;15.40;99.90;;;;;;5051142;28;20029;-75
2021/05/17 04:13:34;;;;;;;11.80;3.72;;;15.40;99.90;;;;;;5036155;28;20446;-75
2021/05/17 04:16:00;;;;;;;14.15;4.28;;;15.50;99.90;;;;;;5039041;28;20021;-76
2021/05/17 04:18:26;;;;;;;18.58;4.18;;;15.40;99.90;;;;;;5032645;28;20021;-76
2021/05/17 04:20:53;;;;;;;14.35;3.67;;;15.50;99.90;;;;;;5034758;28;20036;-76
2021/05/17 04:23:25;;;;;;;16.15;4.03;;;15.50;99.90;;;;;;5036158;28;20028;-76
2021/05/17 04:25:51;;;;;;;7.88;3.08;;;15.60;99.90;;;;;;5035062;28;20057;-76
2021/05/17 04:28:19;;;;;;;18.25;3.85;;;15.60;99.90;;;;;;5016274;28;20034;-76
2021/05/17 04:30:45;;;;;;;15.30;3.78;;;15.70;99.90;;;;;;5035451;28;20071;-77
2021/05/17 04:33:20;;;;;;;13.23;3.05;;;15.60;99.90;;;;;;5032016;28;20026;-78
2021/05/17 04:35:46;;;;;;;12.98;3.78;;;15.70;99.90;;;;;;5013363;28;20083;-76
2021/05/17 04:38:12;;;;;;;13.55;4.10;;;15.70;99.90;;;;;;5016191;28;20048;-75
2021/05/17 04:40:38;;;;;;;16.65;4.15;;;15.70;99.90;;;;;;5016823;28;20483;-75
2021/05/17 04:43:04;;;;;;;17.25;4.43;;;15.70;99.90;;;;;;5034433;28;20048;-76
2021/05/17 04:45:30;;;;;;;16.77;3.72;;;15.70;99.90;;;;;;5043849;28;20021;-76
2021/05/17 04:47:56;;;;;;;14.82;3.30;;;15.70;99.90;;;;;;5039477;28;20026;-77
2021/05/17 04:50:23;;;;;;;12.05;3.60;;;15.70;99.90;;;;;;5028242;28;20030;-75
2021/05/17 04:52:49;;;;;;;11.35;3.38;;;15.70;99.90;;;;;;5039224;28;20494;-77
2021/05/17 04:55:15;;;;;;;18.90;4.80;;;15.70;99.90;;;;;;5019224;28;20036;-77
2021/05/17 04:57:41;;;;;;;24.88;4.10;;;15.70;99.90;;;;;;5017722;28;20033;-76
2021/05/17 05:00:08;;;;;;;14.38;4.05;;;15.70;99.90;;;;;;5037107;28;20523;-77
2021/05/17 05:02:34;;;;;;;32.38;6.13;;;15.70;99.90;;;;;;5036122;28;20033;-76
2021/05/17 05:04:59;;;;;;;22.27;5.40;;;15.70;99.90;;;;;;5037273;28;20036;-76
2021/05/17 05:07:25;;;;;;;22.75;6.28;;;15.60;99.90;;;;;;5045690;28;20030;-76
2021/05/17 05:09:51;;;;;;;27.85;5.60;;;15.60;99.90;;;;;;5023849;28;20034;-76
2021/05/17 05:12:17;;;;;;;17.13;6.05;;;15.60;99.90;;;;;;5024766;28;20080;-76
2021/05/17 05:14:43;;;;;;;16.92;3.53;;;15.50;99.90;;;;;;5030948;28;20002;-77
2021/05/17 05:17:09;;;;;;;15.50;3.72;;;15.50;99.90;;;;;;5033339;28;20034;-77
2021/05/17 05:19:35;;;;;;;13.27;5.00;;;15.60;99.90;;;;;;5037507;28;20036;-76
2021/05/17 05:22:01;;;;;;;17.50;4.22;;;15.50;99.90;;;;;;5019278;28;20033;-77
2021/05/17 05:24:27;;;;;;;13.95;4.38;;;15.50;99.90;;;;;;5039137;28;20048;-76
2021/05/17 05:27:14;;;;;;;21.77;4.82;;;15.60;99.90;;;;;;5039628;28;20040;-77
2021/05/17 05:34:44;;;;;;;13.18;3.88;;;15.70;99.90;;;;;;5033525;28;20053;-76
2021/05/17 05:37:09;;;;;;;11.18;3.90;;;15.80;99.90;;;;;;5026753;28;20028;-77
2021/05/17 05:39:35;;;;;;;15.55;3.40;;;15.80;99.90;;;;;;5021783;28;20033;-77
2021/05/17 05:42:01;;;;;;;17.02;4.40;;;15.80;99.90;;;;;;5020438;28;20085;-77
2021/05/17 05:44:27;;;;;;;20.77;4.72;;;15.80;99.90;;;;;;5037543;28;20021;-77
2021/05/17 05:46:52;;;;;;;10.32;4.15;;;15.80;99.90;;;;;;5018431;28;20033;-77
2021/05/17 05:49:18;;;;;;;12.32;5.00;;;15.90;99.90;;;;;;5018847;28;20037;-77
2021/05/17 05:51:44;;;;;;;16.05;4.55;;;16.10;99.90;;;;;;5034409;28;20117;-76
2021/05/17 05:54:11;;;;;;;10.82;5.18;;;16.20;99.90;;;;;;5039333;28;20041;-77
2021/05/17 05:56:37;;;;;;;9.63;4.10;;;16.30;99.90;;;;;;5039500;28;20054;-76
2021/05/17 05:59:03;;;;;;;17.02;4.35;;;16.30;99.90;;;;;;5037102;28;20021;-76
2021/05/17 06:01:29;;;;;;;18.90;5.25;;;16.50;99.90;;;;;;5033938;28;20079;-78
2021/05/17 06:03:55;;;;;;;14.63;5.10;;;16.50;99.90;;;;;;5027226;28;20041;-76
2021/05/17 06:06:21;;;;;;;15.68;5.68;;;16.60;99.90;;;;;;5037462;28;20086;-78
2021/05/17 06:08:47;;;;;;;12.00;4.10;;;16.60;99.90;;;;;;5020074;28;20196;-76
2021/05/17 06:11:13;;;;;;;10.55;3.97;;;16.60;99.90;;;;;;5038698;28;20029;-76
2021/05/17 06:13:40;;;;;;;19.42;5.40;;;16.60;99.90;;;;;;5039519;28;20025;-75
2021/05/17 06:16:07;;;;;;;20.67;5.72;;;16.50;99.90;;;;;;5049460;28;20040;-75
2021/05/17 06:18:33;;;;;;;15.05;4.88;;;16.40;99.90;;;;;;5028977;28;20391;-77
2021/05/17 06:21:00;;;;;;;19.85;5.13;;;16.30;99.90;;;;;;5041377;28;20020;-77
2021/05/17 06:23:28;;;;;;;25.98;6.13;;;16.40;99.90;;;;;;5041876;28;20037;-76
2021/05/17 06:25:54;;;;;;;25.08;4.30;;;16.30;99.90;;;;;;5051033;28;20034;-76
2021/05/17 06:28:23;;;;;;;15.75;4.47;;;16.40;99.90;;;;;;5046550;28;20028;-75
2021/05/17 06:30:54;;;;;;;25.10;4.63;;;16.40;99.90;;;;;;5020438;28;20033;-76
2021/05/17 06:33:22;;;;;;;9.60;3.67;;;16.60;99.90;;;;;;5042244;28;20030;-77
2021/05/17 06:35:53;;;;;;;13.65;5.00;;;16.70;99.90;;;;;;5035446;28;20036;-77
2021/05/17 06:38:19;;;;;;;14.40;3.97;;;17.00;99.90;;;;;;5048408;28;20013;-78
2021/05/17 06:40:45;;;;;;;14.18;4.07;;;16.90;99.90;;;;;;5034336;28;20046;-77
2021/05/17 06:43:11;;;;;;;17.63;3.05;;;16.60;99.90;;;;;;5035035;28;20032;-77
2021/05/17 06:45:37;;;;;;;8.55;2.72;;;16.30;99.90;;;;;;5052718;28;20013;-78
2021/05/17 06:48:04;;;;;;;3.88;1.17;;;16.10;99.90;;;;;;5034228;28;20024;-77
2021/05/17 06:50:30;;;;;;;9.65;0.68;;;15.40;99.90;;;;;;5045255;28;20033;-76
2021/05/17 06:52:56;;;;;;;2.72;0.90;;;14.60;99.90;;;;;;5033944;28;20034;-75
2021/05/17 06:55:26;;;;;;;5.85;0.52;;;14.00;99.90;;;;;;5049424;28;20025;-76
2021/05/17 07:00:29;;;;;;;0.77;0.25;;;14.00;99.90;;;;;;5051817;28;20026;-77
2021/05/17 07:03:00;;;;;;;3.17;0.68;;;14.30;99.90;;;;;;5025995;28;20065;-78
2021/05/17 07:05:27;;;;;;;4.18;0.40;;;14.30;99.90;;;;;;5023829;28;20037;-77
2021/05/17 07:13:07;;;;;;;1.45;0.52;;;13.70;99.90;;;;;;5047615;28;20072;-76
2021/05/17 07:15:36;;;;;;;0.20;0.20;;;13.70;99.90;;;;;;5043751;28;20014;-78
2021/05/17 07:18:02;;;;;;;1.27;0.35;;;13.80;99.90;;;;;;5027480;28;20018;-77
2021/05/17 07:23:37;;;;;;;0.10;0.10;;;13.70;99.90;;;;;;5040985;28;20028;-76
2021/05/17 07:26:24;;;;;;;0.93;0.20;;;13.60;99.90;;;;;;4975637;28;20035;-75
2021/05/17 07:28:51;;;;;;;0.32;0.20;;;13.60;99.90;;;;;;4981718;28;20121;-75
2021/05/17 07:31:17;;;;;;;2.53;0.20;;;13.60;99.90;;;;;;4999034;28;20042;-75
2021/05/17 07:33:43;;;;;;;19.38;0.95;;;13.60;99.90;;;;;;5033226;28;20036;-76
2021/05/17 07:36:09;;;;;;;0.43;0.38;;;13.60;99.90;;;;;;5014105;28;20032;-75
2021/05/17 07:38:35;;;;;;;0.10;0.10;;;13.70;99.90;;;;;;5015717;28;20034;-75
2021/05/17 07:41:03;;;;;;;1.65;0.35;;;13.70;99.90;;;;;;5037089;28;20057;-75
2021/05/17 07:43:29;;;;;;;0.25;0.25;;;13.80;99.90;;;;;;5036785;28;20037;-75
2021/05/17 07:45:55;;;;;;;0.60;0.60;;;14.00;99.90;;;;;;5012696;28;20033;-76
2021/05/17 07:48:21;;;;;;;0.95;0.30;;;14.20;99.90;;;;;;5014045;28;20059;-75
2021/05/17 07:50:48;;;;;;;0.32;0.20;;;14.20;99.90;;;;;;5017591;28;20117;-71
2021/05/17 07:53:14;;;;;;;0.47;0.20;;;14.30;99.90;;;;;;5016930;28;20034;-72
2021/05/17 07:55:41;;;;;;;0.93;0.40;;;14.40;99.90;;;;;;5014994;28;20028;-71
2021/05/17 07:58:07;;;;;;;0.47;0.22;;;14.50;99.90;;;;;;5018836;28;20061;-72
2021/05/17 08:00:33;;;;;;;1.55;0.40;;;14.70;99.90;;;;;;5018098;28;20025;-74
2021/05/17 08:02:59;;;;;;;0.80;0.47;;;14.80;99.90;;;;;;5037386;28;20108;-73
2021/05/17 08:05:25;;;;;;;1.67;0.93;;;14.70;99.90;;;;;;5034903;28;20060;-74
2021/05/17 08:07:51;;;;;;;0.50;0.50;;;14.60;99.90;;;;;;5033326;28;20084;-74
2021/05/17 08:10:17;;;;;;;3.00;0.88;;;14.50;99.90;;;;;;5033953;28;20028;-74
2021/05/17 08:12:43;;;;;;;0.98;0.40;;;14.40;99.90;;;;;;5012412;28;20109;-70
2021/05/17 08:15:09;;;;;;;1.30;0.65;;;14.30;99.90;;;;;;5014181;28;20025;-72
2021/05/17 08:17:35;;;;;;;0.60;0.50;;;14.30;99.90;;;;;;5018030;28;20024;-72
2021/05/17 08:20:03;;;;;;;1.15;1.05;;;14.30;99.90;;;;;;5017651;28;20094;-71
2021/05/17 08:22:29;;;;;;;1.23;0.45;;;14.30;99.90;;;;;;5034948;28;20022;-71
2021/05/17 08:24:56;;;;;;;0.20;0.20;;;14.40;99.90;;;;;;5009832;28;20079;-70
2021/05/17 08:27:23;;;;;;;0.32;0.30;;;14.30;99.90;;;;;;5032368;28;20036;-71
2021/05/17 08:29:49;;;;;;;0.73;0.70;;;14.20;99.90;;;;;;5032669;28;20044;-70
2021/05/17 08:32:15;;;;;;;0.32;0.32;;;14.10;99.90;;;;;;5032913;28;20022;-70
2021/05/17 08:34:41;;;;;;;3.33;0.40;;;14.10;99.90;;;;;;5014615;28;20024;-71
2021/05/17 08:37:07;;;;;;;3.22;0.60;;;14.10;99.90;;;;;;5014289;28;20052;-71
2021/05/17 08:39:33;;;;;;;0.50;0.50;;;14.10;99.90;;;;;;5032852;28;20099;-71
2021/05/17 08:41:59;;;;;;;0.30;0.30;;;14.10;99.90;;;;;;5015388;28;20057;-72
2021/05/17 08:44:26;;;;;;;0.15;0.13;;;14.10;99.90;;;;;;5013701;28;20029;-70
2021/05/17 08:46:52;;;;;;;0.75;0.60;;;14.00;99.90;;;;;;5033224;28;20032;-71
2021/05/17 08:49:19;;;;;;;0.70;0.40;;;13.90;99.90;;;;;;5033291;28;20463;-71
2021/05/17 08:51:47;;;;;;;0.68;0.50;;;13.70;99.90;;;;;;5012364;28;20475;-71
2021/05/17 08:54:13;;;;;;;3.10;0.98;;;13.60;99.90;;;;;;5033263;28;20029;-71
2021/05/17 08:56:44;;;;;;;2.80;0.52;;;13.60;99.90;;;;;;5015080;28;20026;-73
2021/05/17 08:59:15;;;;;;;0.80;0.80;;;13.60;99.90;;;;;;5014098;28;20048;-72
2021/05/17 09:01:41;;;;;;;4.43;0.90;;;13.60;99.90;;;;;;5032604;28;20043;-71
2021/05/17 09:04:11;;;;;;;0.43;0.30;;;13.60;99.90;;;;;;5032418;28;20032;-71
2021/05/17 09:06:47;;;;;;;0.65;0.57;;;13.60;99.90;;;;;;5016394;28;20021;-72
2021/05/17 09:09:25;;;;;;;1.45;0.90;;;13.60;99.90;;;;;;5012244;28;20037;-72
2021/05/17 09:11:59;;;;;;;2.40;0.90;;;13.60;99.90;;;;;;5015677;28;20030;-71
2021/05/17 09:14:26;;;;;;;0.63;0.55;;;13.80;99.90;;;;;;5025729;28;20021;-71
2021/05/17 09:16:55;;;;;;;0.80;0.65;;;14.00;99.90;;;;;;5013983;28;20087;-70
2021/05/17 09:19:23;;;;;;;2.47;0.65;;;14.10;99.90;;;;;;5027849;28;20112;-69
2021/05/17 09:22:03;;;;;;;5.00;0.68;;;14.20;99.90;;;;;;5029978;28;20040;-70
2021/05/17 09:24:50;;;;;;;0.22;0.22;;;14.20;99.90;;;;;;5028581;28;20040;-70
2021/05/17 09:27:19;;;;;;;0.45;0.28;;;14.20;99.90;;;;;;5013719;28;20037;-71
2021/05/17 09:29:52;;;;;;;0.82;0.63;;;14.10;99.90;;;;;;5029405;28;20127;-71
2021/05/17 09:32:22;;;;;;;1.05;0.28;;;14.10;99.90;;;;;;5028607;28;20029;-71
2021/05/17 09:34:59;;;;;;;1.20;0.80;;;14.10;99.90;;;;;;5030689;28;20372;-71
2021/05/17 09:37:25;;;;;;;1.75;0.60;;;14.10;99.90;;;;;;5013346;28;20506;-70
2021/05/17 09:39:52;;;;;;;0.80;0.70;;;14.30;99.90;;;;;;5030516;28;20060;-69
2021/05/17 09:42:21;;;;;;;1.02;0.57;;;14.40;99.90;;;;;;5027404;28;20446;-68
2021/05/17 09:44:47;;;;;;;2.28;0.43;;;14.60;99.90;;;;;;5031131;28;20033;-71
2021/05/17 09:47:17;;;;;;;1.35;0.60;;;14.60;99.90;;;;;;5030357;28;20052;-71
2021/05/17 09:49:50;;;;;;;1.30;0.47;;;14.70;99.90;;;;;;5024333;28;20025;-70
2021/05/17 09:52:29;;;;;;;1.13;0.32;;;14.90;99.90;;;;;;5025864;28;20368;-70
2021/05/17 09:55:00;;;;;;;5.40;0.50;;;15.00;99.90;;;;;;5030886;28;20099;-71
2021/05/17 09:57:38;;;;;;;0.77;0.77;;;15.30;99.90;;;;;;5024470;28;20025;-70
2021/05/17 10:00:18;;;;;;;0.75;0.50;;;15.50;99.90;;;;;;5027616;28;20483;-71
2021/05/17 10:02:47;;;;;;;3.00;0.40;;;15.60;99.90;;;;;;5029957;28;20523;-70
2021/05/17 10:05:34;;;;;;;0.35;0.30;;;15.80;99.90;;;;;;5030788;28;20029;-69
2021/05/17 10:08:08;;;;;;;0.20;0.20;;;15.90;99.90;;;;;;5027566;28;20037;-69
2021/05/17 10:10:34;;;;;;;0.50;0.50;;;15.80;99.90;;;;;;5028537;28;20022;-70
2021/05/17 10:13:02;;;;;;;0.75;0.40;;;15.60;99.90;;;;;;5029703;28;20029;-69
2021/05/17 10:15:30;;;;;;;0.47;0.40;;;15.70;99.90;;;;;;5030123;28;20021;-70
2021/05/17 10:18:00;;;;;;;2.58;0.50;;;15.90;99.90;;;;;;5029463;28;20132;-71
2021/05/17 10:20:28;;;;;;;4.57;0.57;;;15.90;99.90;;;;;;5028751;28;20502;-71
2021/05/17 10:22:56;;;;;;;1.85;0.50;;;16.10;99.90;;;;;;5031317;28;20025;-70
2021/05/17 10:25:25;;;;;;;1.95;1.38;;;16.40;99.90;;;;;;5030742;28;20480;-69
2021/05/17 10:27:53;;;;;;;1.65;0.65;;;16.80;99.90;;;;;;5013475;28;20029;-69
2021/05/17 10:30:25;;;;;;;0.95;0.30;;;16.80;99.90;;;;;;5027849;28;20116;-69
2021/05/17 10:32:56;;;;;;;0.70;0.38;;;16.60;99.90;;;;;;5032512;28;20026;-70
2021/05/17 10:35:30;;;;;;;1.55;0.38;;;16.70;99.90;;;;;;5012216;28;20029;-70
2021/05/17 10:38:15;;;;;;;0.75;0.40;;;16.80;99.90;;;;;;5010375;28;20029;-70
2021/05/17 10:40:44;;;;;;;0.10;0.10;;;16.80;99.90;;;;;;5008226;28;20029;-72
2021/05/17 10:48:31;;;;;;;2.92;0.43;;;16.90;99.90;;;;;;5031641;28;20136;-65
2021/05/17 10:51:19;;;;;;;1.38;0.45;;;16.80;99.90;;;;;;5028768;28;20066;-68
2021/05/17 10:53:56;;;;;;;0.25;0.20;;;16.80;99.90;;;;;;5009529;28;20510;-66
2021/05/17 10:56:38;;;;;;;0.35;0.30;;;16.90;99.90;;;;;;5032016;28;20429;-70
2021/05/17 11:01:54;;;;;;;2.40;0.70;;;17.00;99.90;;;;;;5028494;28;20459;-69
2021/05/17 11:04:31;;;;;;;0.43;0.40;;;17.10;99.90;;;;;;5026011;28;20095;-68
2021/05/17 11:07:09;;;;;;;2.95;0.98;;;17.40;99.90;;;;;;5028027;28;20132;-69
2021/05/17 11:09:54;;;;;;;1.10;0.50;;;17.90;99.90;;;;;;5026034;28;20091;-69
2021/05/17 11:12:26;;;;;;;1.15;0.35;;;18.20;99.90;;;;;;5006971;28;20029;-68
2021/05/17 11:15:07;;;;;;;0.20;0.20;;;18.10;99.90;;;;;;5031343;28;20018;-69
2021/05/17 11:17:56;;;;;;;1.50;0.40;;;17.70;99.90;;;;;;5016426;28;20051;-69
2021/05/17 11:20:40;;;;;;;3.00;0.50;;;17.60;99.90;;;;;;4995855;28;20029;-68
2021/05/17 11:23:09;;;;;;;0.38;0.38;;;17.40;99.90;;;;;;5032703;28;20041;-69
2021/05/17 11:26:01;;;;;;;2.15;0.50;;;17.60;99.90;;;;;;5033776;28;20049;-70
2021/05/17 11:28:48;;;;;;;2.83;0.60;;;17.80;99.90;;;;;;5010908;28;20057;-70
2021/05/17 11:34:06;;;;;;;0.65;0.45;;;18.40;99.90;;;;;;5033269;28;20044;-69
2021/05/17 11:36:35;;;;;;;0.50;0.20;;;18.60;99.90;;;;;;5020902;28;20021;-71
2021/05/17 11:53:23;;;;;;;1.20;0.50;;;18.50;99.90;;;;;;5027064;28;20036;-70
2021/05/17 11:55:51;;;;;;;3.53;0.40;;;18.20;99.90;;;;;;5034098;28;20089;-70
2021/05/17 11:58:24;;;;;;;0.43;0.40;;;18.60;99.90;;;;;;5032605;28;20017;-69
2021/05/17 12:01:17;;;;;;;2.25;0.88;;;18.80;99.90;;;;;;5013034;28;20032;-68
2021/05/17 12:03:43;;;;;;;2.72;0.30;;;18.60;99.90;;;;;;5030191;28;20022;-69
2021/05/17 12:06:09;;;;;;;0.40;0.30;;;18.50;99.90;;;;;;5033705;28;20040;-70
2021/05/17 12:08:38;;;;;;;1.00;0.50;;;18.40;99.90;;;;;;5013982;28;20492;-69
2021/05/17 12:11:12;;;;;;;0.93;0.50;;;18.40;99.90;;;;;;5032189;28;20022;-70
2021/05/17 12:13:45;;;;;;;2.25;0.38;;;18.50;99.90;;;;;;5015186;28;20102;-69
2021/05/17 12:16:27;;;;;;;0.52;0.30;;;18.60;99.90;;;;;;5034375;28;20037;-69
2021/05/17 12:19:00;;;;;;;1.27;0.43;;;18.80;99.90;;;;;;5033324;28;20026;-70
2021/05/17 12:21:37;;;;;;;11.88;1.38;;;19.00;99.90;;;;;;5029214;28;20147;-70
2021/05/17 12:24:06;;;;;;;11.13;1.05;;;19.20;99.90;;;;;;5012487;28;20025;-70
2021/05/17 12:26:58;;;;;;;0.73;0.30;;;19.60;99.90;;;;;;5015060;28;20052;-70
2021/05/17 12:29:25;;;;;;;1.23;0.65;;;19.70;99.90;;;;;;5007456;28;20036;-69
2021/05/17 12:31:51;;;;;;;0.30;0.30;;;19.70;99.90;;;;;;5014044;28;20123;-69
2021/05/17 12:34:17;;;;;;;1.65;0.30;;;19.90;99.90;;;;;;5030451;28;20026;-68
2021/05/17 12:36:44;;;;;;;0.50;0.40;;;20.10;99.90;;;;;;5032248;28;20076;-69
2021/05/17 12:39:16;;;;;;;1.48;1.13;;;20.40;99.90;;;;;;5012938;28;20053;-69
2021/05/17 12:41:42;;;;;;;0.13;0.13;;;20.60;99.90;;;;;;5031510;28;20017;-69
2021/05/17 12:44:31;;;;;;;0.25;0.25;;;20.70;99.90;;;;;;5006991;28;20022;-70
2021/05/17 12:47:08;;;;;;;0.70;0.32;;;20.50;99.90;;;;;;5012582;28;20132;-70
2021/05/17 12:49:52;;;;;;;2.15;0.52;;;20.40;99.90;;;;;;5027600;28;20021;-68
2021/05/17 12:52:34;;;;;;;0.85;0.20;;;20.30;99.90;;;;;;5023867;28;20033;-70
2021/05/17 12:55:39;;;;;;;2.13;0.30;;;20.20;99.90;;;;;;5030373;28;20030;-69
2021/05/17 12:58:05;;;;;;;0.90;0.10;;;20.00;99.90;;;;;;4998216;28;20383;-69
2021/05/17 13:00:50;;;;;;;0.47;0.40;;;20.00;99.90;;;;;;5027620;28;20022;-69
2021/05/17 13:03:20;;;;;;;0.30;0.30;;;20.20;99.90;;;;;;5030339;28;20022;-68
2021/05/17 13:05:57;;;;;;;0.38;0.38;;;20.40;99.90;;;;;;5029906;28;20024;-68
2021/05/17 13:08:44;;;;;;;0.32;0.30;;;20.40;99.90;;;;;;5025291;28;20490;-70
2021/05/17 13:11:30;;;;;;;0.10;0.10;;;20.60;99.90;;;;;;5028548;28;20372;-69
2021/05/17 13:14:00;;;;;;;0.30;0.30;;;20.90;99.90;;;;;;5028155;28;20120;-69
2021/05/17 13:16:37;;;;;;;0.50;0.40;;;21.00;99.90;;;;;;5012810;28;20104;-71
2021/05/17 13:30:59;;;;;;;1.65;0.52;;;20.60;99.90;;;;;;5025235;28;20037;-71
2021/05/17 13:33:35;;;;;;;0.60;0.60;;;20.60;99.90;;;;;;5022412;28;20037;-70
2021/05/17 13:36:08;;;;;;;3.08;0.50;;;20.60;99.90;;;;;;5028312;28;20515;-70
2021/05/17 13:38:37;;;;;;;3.10;0.82;;;20.60;99.90;;;;;;5008667;28;20021;-71
2021/05/17 13:41:05;;;;;;;4.00;0.80;;;20.70;99.90;;;;;;5023722;28;20100;-71
2021/05/17 13:43:35;;;;;;;1.35;0.75;;;20.80;99.90;;;;;;5028030;28;20036;-70
2021/05/17 13:46:02;;;;;;;0.68;0.43;;;21.00;99.90;;;;;;5010251;28;20029;-69
2021/05/17 13:48:28;;;;;;;0.10;0.10;;;20.90;99.90;;;;;;5013699;28;20034;-71
2021/05/17 13:50:54;;;;;;;2.35;0.30;;;21.00;99.90;;;;;;5014523;28;20056;-71
2021/05/17 13:53:20;;;;;;;0.45;0.30;;;21.10;99.90;;;;;;5008867;28;20032;-72
2021/05/17 13:55:49;;;;;;;0.10;0.10;;;21.20;99.90;;;;;;5028112;28;20025;-71